Time,TemperatureF,DewpointF,PressureIn,WindDirection,WindDirectionDegrees,WindSpeedMPH,WindSpeedGustMPH,Humidity,HourlyPrecipIn,Conditions,Clouds,dailyrainin,SolarRadiationWatts/m^2,SoftwareType,DateUTC
2013-01-19 00:00:00,12.7,9.1,30.41,SW,234,0.0,6.0,85,0.00,,SKC,0.00,0.00,VWS V14.01,2013-01-19 07:00:00,
2013-01-19 00:04:00,12.7,9.1,30.38,SW,234,0.0,0.0,85,0.00,,SKC,0.00,0.00,VWS V14.01,2013-01-19 07:04:00,
2013-01-19 00:10:00,12.7,9.1,30.38,SW,234,0.0,0.0,85,0.00,,SKC,0.00,0.00,VWS V14.01,2013-01-19 07:10:00,
2013-01-19 00:15:00,12.6,9.0,30.37,SW,233,4.0,4.0,85,0.00,,SKC,0.00,0.00,VWS V14.01,2013-01-19 07:15:00,
2013-01-19 00:21:00,12.9,9.5,30.37,SW,234,1.0,4.0,86,0.00,,SKC,0.00,0.00,VWS V14.01,2013-01-19 07:21:00,
2013-01-19 00:27:00,13.1,9.4,30.38,SW,234,0.0,4.0,85,0.00,,SKC,0.00,0.00,VWS V14.01,2013-01-19 07:27:00,
2013-01-19 00:30:00,13.2,9.6,30.38,NNW,342,1.0,4.0,85,0.00,,SKC,0.00,0.00,VWS V14.01,2013-01-19 07:30:00,
2013-01-19 00:33:00,13.2,9.6,30.39,NNW,343,0.0,2.0,85,0.00,,SKC,0.00,0.00,VWS V14.01,2013-01-19 07:33:00,
2013-01-19 00:39:00,13.1,9.4,30.39,NNW,342,0.0,2.0,85,0.00,,SKC,0.00,0.00,VWS V14.01,2013-01-19 07:39:00,
2013-01-19 00:45:00,13.1,9.2,30.39,NNW,343,0.0,2.0,84,0.00,,SKC,0.00,0.00,VWS V14.01,2013-01-19 07:45:00,
2013-01-19 00:51:00,13.1,9.2,30.39,NNW,343,0.0,0.0,84,0.00,,SKC,0.00,0.00,VWS V14.01,2013-01-19 07:51:00,
2013-01-19 00:57:00,13.0,9.1,30.39,NNW,342,0.0,0.0,84,0.00,,SKC,0.00,0.00,VWS V14.01,2013-01-19 07:57:00,
2013-01-19 01:00:00,12.9,9.0,30.40,NNW,343,0.0,0.0,84,0.00,,SKC,0.00,0.00,VWS V14.01,2013-01-19 08:00:00,
2013-01-19 01:03:00,12.8,8.9,30.37,NNW,342,0.0,0.0,84,0.00,,SKC,0.00,0.00,VWS V14.01,2013-01-19 08:03:00,
2013-01-19 01:09:00,12.5,8.3,30.37,NNW,343,0.0,0.0,83,0.00,,SKC,0.00,0.00,VWS V14.01,2013-01-19 08:09:00,
2013-01-19 01:15:00,12.0,7.6,30.37,NNW,343,0.0,1.0,82,0.00,,SKC,0.00,0.00,VWS V14.01,2013-01-19 08:15:00,
2013-01-19 01:22:00,11.6,7.4,30.37,NNW,343,0.0,0.0,83,0.00,,SKC,0.00,0.00,VWS V14.01,2013-01-19 08:22:00,
2013-01-19 01:28:00,11.2,7.1,30.39,NNW,343,0.0,1.0,83,0.00,,SKC,0.00,0.00,VWS V14.01,2013-01-19 08:28:00,
2013-01-19 01:30:00,11.1,7.0,30.39,NNW,342,0.0,1.0,83,0.00,,SKC,0.00,0.00,VWS V14.01,2013-01-19 08:30:00,
2013-01-19 01:34:00,11.0,6.9,30.39,NNW,343,0.0,0.0,83,0.00,,SKC,0.00,0.00,VWS V14.01,2013-01-19 08:34:00,
2013-01-19 01:40:00,10.8,6.7,30.40,NNW,342,0.0,0.0,83,0.00,,SKC,0.00,0.00,VWS V14.01,2013-01-19 08:40:00,
2013-01-19 01:45:00,10.4,6.3,30.40,NNW,343,0.0,1.0,83,0.00,,SKC,0.00,0.00,VWS V14.01,2013-01-19 08:45:00,
2013-01-19 01:51:00,10.1,6.0,30.40,NNW,343,0.0,0.0,83,0.00,,SKC,0.00,0.00,VWS V14.01,2013-01-19 08:51:00,
2013-01-19 01:57:00,9.8,5.7,30.40,NNW,343,0.0,3.0,83,0.00,,SKC,0.00,0.00,VWS V14.01,2013-01-19 08:57:00,
2013-01-19 02:00:00,9.5,5.4,30.40,NNW,342,0.0,3.0,83,0.00,,SKC,0.00,0.00,VWS V14.01,2013-01-19 09:00:00,
2013-01-19 02:03:00,9.5,5.4,30.39,NNW,343,0.0,0.0,83,0.00,,SKC,0.00,0.00,VWS V14.01,2013-01-19 09:03:00,
2013-01-19 02:09:00,9.4,5.6,30.42,NNW,343,0.0,0.0,84,0.00,,SKC,0.00,0.00,VWS V14.01,2013-01-19 09:09:00,
2013-01-19 02:15:00,9.2,5.4,30.41,NNW,343,0.0,1.0,84,0.00,,SKC,0.00,0.00,VWS V14.01,2013-01-19 09:15:00,
2013-01-19 02:21:00,9.0,5.2,30.40,NNW,342,0.0,1.0,84,0.00,,SKC,0.00,0.00,VWS V14.01,2013-01-19 09:21:00,
2013-01-19 02:27:00,8.8,5.0,30.40,NNW,342,0.0,2.0,84,0.00,,SKC,0.00,0.00,VWS V14.01,2013-01-19 09:27:00,
2013-01-19 02:30:00,8.8,5.0,30.40,NNW,342,0.0,2.0,84,0.00,,SKC,0.00,0.00,VWS V14.01,2013-01-19 09:30:00,
2013-01-19 02:33:00,8.9,5.3,30.40,NNW,342,0.0,1.0,85,0.00,,SKC,0.00,0.00,VWS V14.01,2013-01-19 09:33:00,
2013-01-19 02:39:00,8.9,5.3,30.40,NNW,342,1.0,1.0,85,0.00,,SKC,0.00,0.00,VWS V14.01,2013-01-19 09:39:00,
2013-01-19 02:45:00,9.1,5.8,30.39,SW,226,0.0,4.0,86,0.00,,SKC,0.00,0.00,VWS V14.01,2013-01-19 09:45:00,
2013-01-19 02:52:00,9.4,6.1,30.41,North,355,3.0,3.0,86,0.00,,SKC,0.00,0.00,VWS V14.01,2013-01-19 09:52:00,
2013-01-19 02:58:00,9.7,6.4,30.40,North,355,0.0,3.0,86,0.00,,SKC,0.00,0.00,VWS V14.01,2013-01-19 09:58:00,
2013-01-19 03:00:00,9.8,6.5,30.40,North,355,1.0,3.0,86,0.00,,SKC,0.00,0.00,VWS V14.01,2013-01-19 10:00:00,
2013-01-19 03:04:00,9.9,6.6,30.45,North,355,0.0,3.0,86,0.00,,SKC,0.00,0.00,VWS V14.01,2013-01-19 10:04:00,
2013-01-19 03:10:00,9.9,6.6,30.45,North,355,0.0,3.0,86,0.00,,SKC,0.00,0.00,VWS V14.01,2013-01-19 10:10:00,
2013-01-19 03:15:00,9.9,6.6,30.46,North,355,0.0,3.0,86,0.00,,SKC,0.00,0.00,VWS V14.01,2013-01-19 10:15:00,
2013-01-19 03:21:00,9.9,6.6,30.46,North,355,0.0,1.0,86,0.00,,SKC,0.00,0.00,VWS V14.01,2013-01-19 10:21:00,
2013-01-19 03:27:00,9.9,6.6,30.47,North,355,0.0,2.0,86,0.00,,SKC,0.00,0.00,VWS V14.01,2013-01-19 10:27:00,
2013-01-19 03:30:00,9.9,6.6,30.46,North,355,0.0,2.0,86,0.00,,SKC,0.00,0.00,VWS V14.01,2013-01-19 10:30:00,
2013-01-19 03:33:00,9.9,6.6,30.46,North,355,0.0,0.0,86,0.00,,SKC,0.00,0.00,VWS V14.01,2013-01-19 10:33:00,
2013-01-19 03:39:00,9.6,6.0,30.46,WSW,244,3.0,3.0,85,0.00,,SKC,0.00,0.00,VWS V14.01,2013-01-19 10:39:00,
2013-01-19 03:45:00,9.3,5.7,30.46,SW,214,0.0,3.0,85,0.00,,SKC,0.00,0.00,VWS V14.01,2013-01-19 10:45:00,
2013-01-19 03:51:00,9.4,6.1,30.46,SW,219,0.0,2.0,86,0.00,,SKC,0.00,0.00,VWS V14.01,2013-01-19 10:51:00,
2013-01-19 03:57:00,9.4,6.1,30.46,SW,219,0.0,2.0,86,0.00,,SKC,0.00,0.00,VWS V14.01,2013-01-19 10:57:00,
2013-01-19 04:00:00,9.4,6.1,30.46,SW,219,1.0,2.0,86,0.00,,SKC,0.00,0.00,VWS V14.01,2013-01-19 11:00:00,
2013-01-19 04:03:00,9.4,6.1,30.51,SW,219,0.0,1.0,86,0.00,,SKC,0.00,0.00,VWS V14.01,2013-01-19 11:03:00,
2013-01-19 04:10:00,9.3,5.7,30.50,SW,219,0.0,1.0,85,0.00,,SKC,0.00,0.00,VWS V14.01,2013-01-19 11:10:00,
2013-01-19 04:15:00,9.2,5.9,30.50,SW,221,0.0,3.0,86,0.00,,SKC,0.00,0.00,VWS V14.01,2013-01-19 11:15:00,
2013-01-19 04:30:00,9.3,6.0,30.51,SW,221,0.0,1.0,86,0.00,,SKC,0.00,0.00,VWS V14.01,2013-01-19 11:30:00,
2013-01-19 04:45:00,8.8,5.2,30.52,SW,221,0.0,0.0,85,0.00,,SKC,0.00,0.00,VWS V14.01,2013-01-19 11:45:00,
2013-01-19 05:00:00,7.9,4.1,30.52,SW,221,0.0,3.0,84,0.00,,SKC,0.00,0.00,VWS V14.01,2013-01-19 12:00:00,
2013-01-19 05:15:00,7.2,3.4,30.57,SW,221,0.0,2.0,84,0.00,,SKC,0.00,0.00,VWS V14.01,2013-01-19 12:15:00,
2013-01-19 05:30:00,6.8,3.0,30.58,SW,221,1.0,1.0,84,0.00,,SKC,0.00,0.00,VWS V14.01,2013-01-19 12:30:00,
2013-01-19 05:45:00,6.4,2.6,30.59,SW,221,0.0,2.0,84,0.00,,SKC,0.00,0.00,VWS V14.01,2013-01-19 12:45:00,
2013-01-19 05:48:00,6.3,2.5,30.59,SW,221,2.0,2.0,84,0.00,,SKC,0.00,0.00,VWS V14.01,2013-01-19 12:48:00,
2013-01-19 05:50:00,6.2,2.4,30.59,SW,221,0.0,2.0,84,0.00,,SKC,0.00,0.00,VWS V14.01,2013-01-19 12:50:00,
2013-01-19 05:51:00,6.1,2.3,30.59,SW,221,0.0,2.0,84,0.00,,SKC,0.00,0.00,VWS V14.01,2013-01-19 12:51:00,
2013-01-19 05:53:00,6.1,2.3,30.59,SW,221,0.0,2.0,84,0.00,,SKC,0.00,0.00,VWS V14.01,2013-01-19 12:53:00,
2013-01-19 05:59:00,5.9,2.1,30.59,SW,221,0.0,2.0,84,0.00,,SKC,0.00,0.00,VWS V14.01,2013-01-19 12:59:00,
2013-01-19 06:00:00,5.8,2.0,30.59,SW,221,0.0,2.0,84,0.00,,SKC,0.00,0.00,VWS V14.01,2013-01-19 13:00:00,
2013-01-19 06:05:00,5.7,1.9,30.63,SW,221,0.0,1.0,84,0.00,,SKC,0.00,0.00,VWS V14.01,2013-01-19 13:05:00,
2013-01-19 06:11:00,5.6,1.8,30.63,SW,221,0.0,2.0,84,0.00,,SKC,0.00,0.00,VWS V14.01,2013-01-19 13:11:00,
2013-01-19 06:15:00,5.4,1.6,30.63,SW,221,0.0,2.0,84,0.00,,SKC,0.00,0.00,VWS V14.01,2013-01-19 13:15:00,
2013-01-19 06:18:00,5.3,1.5,30.63,SW,221,0.0,0.0,84,0.00,,SKC,0.00,0.00,VWS V14.01,2013-01-19 13:18:00,
2013-01-19 06:24:00,5.2,1.4,30.62,SW,221,0.0,1.0,84,0.00,,SKC,0.00,0.00,VWS V14.01,2013-01-19 13:24:00,
2013-01-19 06:30:00,5.1,1.6,30.62,SW,221,0.0,1.0,85,0.00,,SKC,0.00,0.00,VWS V14.01,2013-01-19 13:30:00,
2013-01-19 06:38:00,5.2,1.7,30.63,SW,221,1.0,2.0,85,0.00,,SKC,0.00,0.00,VWS V14.01,2013-01-19 13:38:00,
2013-01-19 06:44:00,5.5,2.2,30.63,SW,221,0.0,3.0,86,0.00,,SKC,0.00,0.00,VWS V14.01,2013-01-19 13:44:00,
2013-01-19 06:45:00,5.5,2.2,30.63,SW,221,0.0,3.0,86,0.00,,SKC,0.00,0.00,VWS V14.01,2013-01-19 13:45:00,
2013-01-19 06:50:00,5.7,2.4,30.63,SW,221,0.0,0.0,86,0.00,,SKC,0.00,0.00,VWS V14.01,2013-01-19 13:50:00,
2013-01-19 06:56:00,5.8,2.5,30.63,SW,221,0.0,0.0,86,0.00,,SKC,0.00,0.00,VWS V14.01,2013-01-19 13:56:00,
2013-01-19 07:00:00,5.9,2.6,30.63,SW,221,0.0,2.0,86,0.00,,SKC,0.00,0.00,VWS V14.01,2013-01-19 14:00:00,
2013-01-19 07:02:00,5.9,2.6,30.63,SW,221,0.0,1.0,86,0.00,,SKC,0.00,0.00,VWS V14.01,2013-01-19 14:02:00,
2013-01-19 07:08:00,6.0,2.7,30.64,SW,221,0.0,1.0,86,0.00,,SKC,0.00,0.00,VWS V14.01,2013-01-19 14:08:00,
2013-01-19 07:14:00,6.0,2.7,30.64,SW,221,0.0,1.0,86,0.00,,SKC,0.00,0.00,VWS V14.01,2013-01-19 14:14:00,
2013-01-19 07:15:00,6.0,2.7,30.64,SW,221,0.0,1.0,86,0.00,,SKC,0.00,0.00,VWS V14.01,2013-01-19 14:15:00,
2013-01-19 07:20:00,6.0,2.7,30.65,SW,221,0.0,0.0,86,0.00,,SKC,0.00,0.00,VWS V14.01,2013-01-19 14:20:00,
2013-01-19 07:26:00,5.9,2.6,30.65,SW,221,0.0,0.0,86,0.00,,SKC,0.00,0.00,VWS V14.01,2013-01-19 14:26:00,
2013-01-19 07:30:00,5.8,2.5,30.65,SW,221,0.0,0.0,86,0.00,,SKC,0.00,5.00,VWS V14.01,2013-01-19 14:30:00,
2013-01-19 07:34:00,5.7,2.2,30.65,SW,221,0.0,0.0,85,0.00,,SKC,0.00,5.00,VWS V14.01,2013-01-19 14:34:00,
2013-01-19 07:40:00,5.5,2.0,30.65,SW,221,0.0,1.0,85,0.00,,SKC,0.00,7.00,VWS V14.01,2013-01-19 14:40:00,
2013-01-19 07:45:00,5.2,1.7,30.65,SW,221,0.0,1.0,85,0.00,,SKC,0.00,7.00,VWS V14.01,2013-01-19 14:45:00,
2013-01-19 07:51:00,5.0,1.5,30.65,SW,221,0.0,0.0,85,0.00,,SKC,0.00,9.00,VWS V14.01,2013-01-19 14:51:00,
2013-01-19 07:57:00,4.7,1.2,30.65,SW,221,0.0,0.0,85,0.00,,SKC,0.00,9.00,VWS V14.01,2013-01-19 14:57:00,
2013-01-19 08:00:00,4.6,1.1,30.65,SW,221,0.0,0.0,85,0.00,,SKC,0.00,11.00,VWS V14.01,2013-01-19 15:00:00,
2013-01-19 08:03:00,4.6,0.8,30.68,SW,221,0.0,0.0,84,0.00,,SKC,0.00,11.00,VWS V14.01,2013-01-19 15:03:00,
2013-01-19 08:09:00,4.4,0.6,30.68,SW,221,0.0,0.0,84,0.00,,SKC,0.00,11.00,VWS V14.01,2013-01-19 15:09:00,
2013-01-19 08:15:00,4.4,0.9,30.68,SW,221,0.0,0.0,85,0.00,,SKC,0.00,12.00,VWS V14.01,2013-01-19 15:15:00,
2013-01-19 08:21:00,4.3,0.8,30.69,SW,221,0.0,0.0,85,0.00,,SKC,0.00,12.00,VWS V14.01,2013-01-19 15:21:00,
2013-01-19 08:27:00,4.3,0.8,30.69,SW,221,0.0,1.0,85,0.00,,SKC,0.00,14.00,VWS V14.01,2013-01-19 15:27:00,
2013-01-19 08:30:00,4.2,0.7,30.69,SW,221,0.0,1.0,85,0.00,,SKC,0.00,14.00,VWS V14.01,2013-01-19 15:30:00,
2013-01-19 08:33:00,4.3,0.8,30.70,SW,221,0.0,0.0,85,0.00,,SKC,0.00,14.00,VWS V14.01,2013-01-19 15:33:00,
2013-01-19 08:39:00,4.3,0.8,30.70,SW,221,0.0,0.0,85,0.00,,SKC,0.00,14.00,VWS V14.01,2013-01-19 15:39:00,
2013-01-19 08:45:00,4.4,0.9,30.70,SW,221,0.0,0.0,85,0.00,,SKC,0.00,16.00,VWS V14.01,2013-01-19 15:45:00,
2013-01-19 08:51:00,4.3,0.8,30.70,SW,221,0.0,0.0,85,0.00,,SKC,0.00,16.00,VWS V14.01,2013-01-19 15:51:00,
2013-01-19 08:57:00,4.2,0.7,30.71,SW,221,0.0,1.0,85,0.00,,SKC,0.00,18.00,VWS V14.01,2013-01-19 15:57:00,
2013-01-19 09:00:00,4.1,0.6,30.71,SW,221,0.0,1.0,85,0.00,,SKC,0.00,18.00,VWS V14.01,2013-01-19 16:00:00,
2013-01-19 09:03:00,4.1,0.6,30.73,SW,221,0.0,0.0,85,0.00,,SKC,0.00,19.00,VWS V14.01,2013-01-19 16:03:00,
2013-01-19 09:09:00,4.1,0.6,30.73,SW,221,0.0,0.0,85,0.00,,SKC,0.00,19.00,VWS V14.01,2013-01-19 16:09:00,
2013-01-19 09:15:00,4.1,0.6,30.73,SW,221,0.0,0.0,85,0.00,,SKC,0.00,21.00,VWS V14.01,2013-01-19 16:15:00,
2013-01-19 09:21:00,4.2,0.7,30.74,SW,221,0.0,0.0,85,0.00,,SKC,0.00,23.00,VWS V14.01,2013-01-19 16:21:00,
2013-01-19 09:28:00,4.3,0.8,30.74,SW,221,0.0,0.0,85,0.00,,SKC,0.00,294.00,VWS V14.01,2013-01-19 16:28:00,
2013-01-19 09:30:00,5.0,2.0,30.72,SW,221,0.0,0.0,87,0.00,,SKC,0.00,299.00,VWS V14.01,2013-01-19 16:30:00,
2013-01-19 09:34:00,7.5,4.9,30.70,SW,221,0.0,0.0,89,0.00,,SKC,0.00,311.00,VWS V14.01,2013-01-19 16:34:00,
2013-01-19 09:40:00,11.3,8.9,30.67,SW,221,0.0,0.0,90,0.00,,SKC,0.00,330.00,VWS V14.01,2013-01-19 16:40:00,
2013-01-19 09:46:00,13.4,11.0,30.66,SW,221,0.0,0.0,90,0.00,,SKC,0.00,339.00,VWS V14.01,2013-01-19 16:46:00,
2013-01-19 09:52:00,15.6,12.7,30.63,SW,221,0.0,1.0,88,0.00,,SKC,0.00,357.00,VWS V14.01,2013-01-19 16:52:00,
2013-01-19 09:58:00,17.6,13.9,30.62,SW,221,0.0,1.0,85,0.00,,SKC,0.00,373.00,VWS V14.01,2013-01-19 16:58:00,
2013-01-19 10:00:00,18.3,14.0,30.62,SW,221,2.0,2.0,83,0.00,,SKC,0.00,380.00,VWS V14.01,2013-01-19 17:00:00,
2013-01-19 10:05:00,19.1,13.1,30.62,SW,221,0.0,4.0,77,0.00,,SKC,0.00,390.00,VWS V14.01,2013-01-19 17:05:00,
2013-01-19 10:11:00,20.5,13.2,30.61,SW,220,1.0,4.0,73,0.00,,SKC,0.00,406.00,VWS V14.01,2013-01-19 17:11:00,
2013-01-19 10:15:00,21.3,13.7,30.61,SW,220,1.0,4.0,72,0.00,,SKC,0.00,420.00,VWS V14.01,2013-01-19 17:15:00,
2013-01-19 10:17:00,21.4,13.8,30.61,SW,220,2.0,4.0,72,0.00,,SKC,0.00,424.00,VWS V14.01,2013-01-19 17:17:00,
2013-01-19 10:23:00,21.8,13.5,30.61,SW,219,2.0,4.0,70,0.00,,SKC,0.00,436.00,VWS V14.01,2013-01-19 17:23:00,
2013-01-19 10:29:00,22.5,13.2,30.61,NNE,14,0.0,4.0,67,0.00,,SKC,0.00,452.00,VWS V14.01,2013-01-19 17:29:00,
2013-01-19 10:30:00,22.6,13.3,30.60,NNE,14,1.0,4.0,67,0.00,,SKC,0.00,454.00,VWS V14.01,2013-01-19 17:30:00,
2013-01-19 10:36:00,22.9,12.9,30.60,NE,37,3.0,4.0,65,0.00,,SKC,0.00,469.00,VWS V14.01,2013-01-19 17:36:00,
2013-01-19 10:42:00,23.3,12.9,30.59,NE,38,0.0,4.0,64,0.00,,SKC,0.00,483.00,VWS V14.01,2013-01-19 17:42:00,
2013-01-19 10:45:00,23.9,13.1,30.59,NE,38,0.0,4.0,63,0.00,,SKC,0.00,490.00,VWS V14.01,2013-01-19 17:45:00,
2013-01-19 10:48:00,24.4,13.3,30.59,NE,38,1.0,2.0,62,0.00,,SKC,0.00,496.00,VWS V14.01,2013-01-19 17:48:00,
2013-01-19 10:54:00,25.5,13.6,30.57,NE,37,0.0,3.0,60,0.00,,SKC,0.00,506.00,VWS V14.01,2013-01-19 17:54:00,
2013-01-19 11:00:00,26.2,13.1,30.56,NE,38,3.0,3.0,57,0.00,,SKC,0.00,512.00,VWS V14.01,2013-01-19 18:00:00,
2013-01-19 11:07:00,26.5,12.9,30.54,NE,38,3.0,4.0,56,0.00,,SKC,0.00,520.00,VWS V14.01,2013-01-19 18:07:00,
2013-01-19 11:15:00,27.5,14.3,30.54,NE,35,5.0,5.0,57,0.00,,SKC,0.00,531.00,VWS V14.01,2013-01-19 18:15:00,
2013-01-19 11:21:00,27.9,13.4,30.53,ENE,61,3.0,6.0,54,0.00,,SKC,0.00,489.00,VWS V14.01,2013-01-19 18:21:00,
2013-01-19 11:30:00,28.5,14.0,30.53,NE,42,4.0,6.0,54,0.00,,SKC,0.00,545.00,VWS V14.01,2013-01-19 18:30:00,
2013-01-19 11:38:00,29.2,14.2,30.51,NE,44,2.0,5.0,53,0.00,,SKC,0.00,552.00,VWS V14.01,2013-01-19 18:38:00,
2013-01-19 11:44:00,30.2,14.3,30.50,NNE,25,0.0,6.0,51,0.00,,SKC,0.00,554.00,VWS V14.01,2013-01-19 18:44:00,
2013-01-19 11:45:00,30.4,14.4,30.50,North,360,3.0,7.0,51,0.00,,SKC,0.00,557.00,VWS V14.01,2013-01-19 18:45:00,
2013-01-19 11:50:00,30.8,14.4,30.48,NE,45,7.0,7.0,50,0.00,,SKC,0.00,559.00,VWS V14.01,2013-01-19 18:50:00,
2013-01-19 12:00:00,31.3,14.4,30.48,NNE,19,7.0,8.0,49,0.00,,SKC,0.00,563.00,VWS V14.01,2013-01-19 19:00:00,
2013-01-19 12:04:00,31.5,14.1,30.47,North,355,5.0,7.0,48,0.00,,SKC,0.00,566.00,VWS V14.01,2013-01-19 19:04:00,
2013-01-19 12:11:00,31.8,14.4,30.47,NNE,26,3.0,7.0,48,0.00,,SKC,0.00,504.00,VWS V14.01,2013-01-19 19:11:00,
2013-01-19 12:15:00,32.0,14.6,30.46,NE,42,5.0,7.0,48,0.00,,SKC,0.00,568.00,VWS V14.01,2013-01-19 19:15:00,
2013-01-19 12:16:00,32.0,14.6,30.46,NE,42,5.0,7.0,48,0.00,,SKC,0.00,568.00,VWS V14.01,2013-01-19 19:16:00,
2013-01-19 12:22:00,32.8,14.8,30.44,NNE,26,2.0,6.0,47,0.00,,SKC,0.00,568.00,VWS V14.01,2013-01-19 19:22:00,
2013-01-19 12:28:00,33.2,15.2,30.44,North,360,2.0,9.0,47,0.00,,SKC,0.00,568.00,VWS V14.01,2013-01-19 19:28:00,
2013-01-19 12:30:00,33.5,14.4,30.43,NE,42,3.0,9.0,45,0.00,,SKC,0.00,568.00,VWS V14.01,2013-01-19 19:30:00,
2013-01-19 12:34:00,33.7,15.6,30.43,NE,36,4.0,5.0,47,0.00,,SKC,0.00,568.00,VWS V14.01,2013-01-19 19:34:00,
2013-01-19 12:42:00,33.9,14.8,30.42,NE,44,3.0,9.0,45,0.00,,SKC,0.00,564.00,VWS V14.01,2013-01-19 19:42:00,
2013-01-19 12:45:00,33.7,14.1,30.42,NE,39,3.0,9.0,44,0.00,,SKC,0.00,564.00,VWS V14.01,2013-01-19 19:45:00,
2013-01-19 12:49:00,33.9,16.8,30.42,NNE,24,5.0,8.0,49,0.00,,SKC,0.00,563.00,VWS V14.01,2013-01-19 19:49:00,
2013-01-19 12:55:00,34.2,14.6,30.42,NNE,15,4.0,8.0,44,0.00,,SKC,0.00,557.00,VWS V14.01,2013-01-19 19:55:00,
2013-01-19 13:00:00,34.7,14.5,30.40,NE,40,4.0,8.0,43,0.00,,SKC,0.00,555.00,VWS V14.01,2013-01-19 20:00:00,
2013-01-19 13:01:00,34.8,14.6,30.40,NE,43,1.0,6.0,43,0.00,,SKC,0.00,555.00,VWS V14.01,2013-01-19 20:01:00,
2013-01-19 13:07:00,35.4,15.1,30.42,NE,40,4.0,6.0,43,0.00,,SKC,0.00,552.00,VWS V14.01,2013-01-19 20:07:00,
2013-01-19 13:12:00,35.8,15.5,30.41,NE,36,5.0,6.0,43,0.00,,SKC,0.00,545.00,VWS V14.01,2013-01-19 20:12:00,
2013-01-19 13:15:00,35.8,15.0,30.40,NNE,12,5.0,6.0,42,0.00,,SKC,0.00,545.00,VWS V14.01,2013-01-19 20:15:00,
2013-01-19 13:19:00,36.0,15.7,30.40,NNE,28,3.0,7.0,43,0.00,,SKC,0.00,541.00,VWS V14.01,2013-01-19 20:19:00,
2013-01-19 13:24:00,36.0,15.1,30.40,NNE,30,5.0,7.0,42,0.00,,SKC,0.00,536.00,VWS V14.01,2013-01-19 20:24:00,
2013-01-19 13:30:00,36.4,15.5,30.40,NNE,14,5.0,7.0,42,0.00,,SKC,0.00,529.00,VWS V14.01,2013-01-19 20:30:00,
2013-01-19 13:38:00,36.5,15.6,30.40,NNE,19,6.0,11.0,42,0.00,,SKC,0.00,519.00,VWS V14.01,2013-01-19 20:38:00,
2013-01-19 13:44:00,36.5,15.1,30.40,NNW,331,4.0,11.0,41,0.00,,SKC,0.00,512.00,VWS V14.01,2013-01-19 20:44:00,
2013-01-19 13:45:00,36.5,15.6,30.40,North,360,6.0,11.0,42,0.00,,SKC,0.00,510.00,VWS V14.01,2013-01-19 20:45:00,
2013-01-19 13:51:00,36.7,15.2,30.40,NNE,17,5.0,10.0,41,0.00,,SKC,0.00,501.00,VWS V14.01,2013-01-19 20:51:00,
2013-01-19 13:58:00,37.1,15.6,30.40,NNE,29,6.0,10.0,41,0.00,,SKC,0.00,490.00,VWS V14.01,2013-01-19 20:58:00,
2013-01-19 14:00:00,37.3,15.8,30.40,NNE,14,3.0,10.0,41,0.00,,SKC,0.00,487.00,VWS V14.01,2013-01-19 21:00:00,
2013-01-19 14:05:00,37.7,16.1,30.38,North,355,1.0,6.0,41,0.00,,SKC,0.00,482.00,VWS V14.01,2013-01-19 21:05:00,
2013-01-19 14:11:00,38.2,16.0,30.37,NE,45,1.0,6.0,40,0.00,,SKC,0.00,469.00,VWS V14.01,2013-01-19 21:11:00,
2013-01-19 14:15:00,38.3,16.1,30.37,NE,46,0.0,6.0,40,0.00,,SKC,0.00,462.00,VWS V14.01,2013-01-19 21:15:00,
2013-01-19 14:18:00,38.5,16.3,30.37,NE,46,0.0,3.0,40,0.00,,SKC,0.00,459.00,VWS V14.01,2013-01-19 21:18:00,
2013-01-19 14:23:00,38.8,15.4,30.37,NE,46,1.0,4.0,38,0.00,,SKC,0.00,450.00,VWS V14.01,2013-01-19 21:23:00,
2013-01-19 14:30:00,39.2,15.7,30.37,NE,46,0.0,4.0,38,0.00,,SKC,0.00,436.00,VWS V14.01,2013-01-19 21:30:00,
2013-01-19 14:32:00,39.4,15.9,30.37,NE,46,0.0,0.0,38,0.00,,SKC,0.00,431.00,VWS V14.01,2013-01-19 21:32:00,
2013-01-19 14:45:00,39.9,16.4,30.36,NE,46,0.0,3.0,38,0.00,,SKC,0.00,406.00,VWS V14.01,2013-01-19 21:45:00,
2013-01-19 14:50:00,39.9,16.4,30.35,NE,46,0.0,4.0,38,0.00,,SKC,0.00,392.00,VWS V14.01,2013-01-19 21:50:00,
2013-01-19 14:56:00,39.9,15.8,30.36,NE,46,0.0,4.0,37,0.00,,SKC,0.00,380.00,VWS V14.01,2013-01-19 21:56:00,
2013-01-19 15:00:00,40.0,15.2,30.35,NE,46,0.0,4.0,36,0.00,,SKC,0.00,371.00,VWS V14.01,2013-01-19 22:00:00,
2013-01-19 15:03:00,40.1,15.9,30.37,NE,46,0.0,0.0,37,0.00,,SKC,0.00,364.00,VWS V14.01,2013-01-19 22:03:00,
2013-01-19 15:09:00,41.0,16.7,30.35,NE,46,0.0,0.0,37,0.00,,SKC,0.00,350.00,VWS V14.01,2013-01-19 22:09:00,
2013-01-19 15:15:00,40.4,17.4,30.35,NE,46,0.0,1.0,39,0.00,,SKC,0.00,332.00,VWS V14.01,2013-01-19 22:15:00,
2013-01-19 15:21:00,39.6,17.3,30.37,NE,46,3.0,3.0,40,0.00,,SKC,0.00,320.00,VWS V14.01,2013-01-19 22:21:00,
2013-01-19 15:27:00,37.8,17.3,30.39,NE,46,4.0,4.0,43,0.00,,SKC,0.00,294.00,VWS V14.01,2013-01-19 22:27:00,
2013-01-19 15:30:00,37.4,17.5,30.39,NE,46,3.0,4.0,44,0.00,,SKC,0.00,23.00,VWS V14.01,2013-01-19 22:30:00,
2013-01-19 15:33:00,37.1,17.2,30.39,NE,46,2.0,3.0,44,0.00,,SKC,0.00,23.00,VWS V14.01,2013-01-19 22:33:00,
2013-01-19 15:39:00,36.4,17.6,30.39,WNW,284,2.0,4.0,46,0.00,,SKC,0.00,23.00,VWS V14.01,2013-01-19 22:39:00,
2013-01-19 15:45:00,35.2,16.5,30.40,West,281,2.0,4.0,46,0.00,,SKC,0.00,21.00,VWS V14.01,2013-01-19 22:45:00,
2013-01-19 15:50:00,34.4,16.3,30.42,West,281,2.0,4.0,47,0.00,,SKC,0.00,21.00,VWS V14.01,2013-01-19 22:50:00,
2013-01-19 15:57:00,33.7,16.1,30.42,West,281,0.0,4.0,48,0.00,,SKC,0.00,21.00,VWS V14.01,2013-01-19 22:57:00,
2013-01-19 16:00:00,33.4,16.3,30.44,West,281,0.0,4.0,49,0.00,,SKC,0.00,19.00,VWS V14.01,2013-01-19 23:00:00,
2013-01-19 16:03:00,33.2,16.6,30.44,West,281,0.0,0.0,50,0.00,,SKC,0.00,19.00,VWS V14.01,2013-01-19 23:03:00,
2013-01-19 16:13:00,32.5,15.9,30.44,West,281,0.0,1.0,50,0.00,,SKC,0.00,18.00,VWS V14.01,2013-01-19 23:13:00,
2013-01-19 16:15:00,32.2,15.7,30.44,West,281,0.0,1.0,50,0.00,,SKC,0.00,18.00,VWS V14.01,2013-01-19 23:15:00,
2013-01-19 16:20:00,32.0,15.5,30.44,West,281,0.0,0.0,50,0.00,,SKC,0.00,16.00,VWS V14.01,2013-01-19 23:20:00,
2013-01-19 16:28:00,31.3,15.3,30.46,West,281,0.0,0.0,51,0.00,,SKC,0.00,16.00,VWS V14.01,2013-01-19 23:28:00,
2013-01-19 16:30:00,31.2,15.6,30.46,West,281,0.0,0.0,52,0.00,,SKC,0.00,14.00,VWS V14.01,2013-01-19 23:30:00,
2013-01-19 16:34:00,30.8,15.3,30.46,West,281,0.0,1.0,52,0.00,,SKC,0.00,14.00,VWS V14.01,2013-01-19 23:34:00,
2013-01-19 16:40:00,30.2,15.1,30.46,West,281,0.0,1.0,53,0.00,,SKC,0.00,12.00,VWS V14.01,2013-01-19 23:40:00,
2013-01-19 16:45:00,29.9,15.3,30.46,West,281,0.0,1.0,54,0.00,,SKC,0.00,12.00,VWS V14.01,2013-01-19 23:45:00,
2013-01-19 16:52:00,29.4,15.2,30.48,West,281,0.0,0.0,55,0.00,,SKC,0.00,11.00,VWS V14.01,2013-01-19 23:52:00,
2013-01-19 16:58:00,28.9,15.2,30.48,West,281,0.0,0.0,56,0.00,,SKC,0.00,9.00,VWS V14.01,2013-01-19 23:58:00,
2013-01-19 17:00:00,28.7,15.0,30.50,West,281,0.0,0.0,56,0.00,,SKC,0.00,7.00,VWS V14.01,2013-01-20 00:00:00,
2013-01-19 17:07:00,28.1,14.4,30.49,West,281,0.0,0.0,56,0.00,,SKC,0.00,5.00,VWS V14.01,2013-01-20 00:07:00,
2013-01-19 17:14:00,27.5,14.3,30.49,West,281,0.0,0.0,57,0.00,,SKC,0.00,0.00,VWS V14.01,2013-01-20 00:14:00,
2013-01-19 17:15:00,27.4,14.6,30.51,West,281,0.0,0.0,58,0.00,,SKC,0.00,0.00,VWS V14.01,2013-01-20 00:15:00,
2013-01-19 17:20:00,27.1,14.7,30.51,West,281,0.0,0.0,59,0.00,,SKC,0.00,0.00,VWS V14.01,2013-01-20 00:20:00,
2013-01-19 17:26:00,26.5,13.7,30.51,West,281,0.0,0.0,58,0.00,,SKC,0.00,0.00,VWS V14.01,2013-01-20 00:26:00,
2013-01-19 17:30:00,26.2,13.8,30.51,West,281,0.0,0.0,59,0.00,,SKC,0.00,0.00,VWS V14.01,2013-01-20 00:30:00,
2013-01-19 17:33:00,26.1,14.1,30.51,West,281,0.0,0.0,60,0.00,,SKC,0.00,0.00,VWS V14.01,2013-01-20 00:33:00,
2013-01-19 17:39:00,25.7,13.8,30.52,West,281,0.0,0.0,60,0.00,,SKC,0.00,0.00,VWS V14.01,2013-01-20 00:39:00,
2013-01-19 17:45:00,25.3,14.5,30.53,West,281,0.0,0.0,63,0.00,,SKC,0.00,0.00,VWS V14.01,2013-01-20 00:45:00,
2013-01-19 17:51:00,24.9,14.5,30.53,West,281,0.0,0.0,64,0.00,,SKC,0.00,0.00,VWS V14.01,2013-01-20 00:51:00,
2013-01-19 17:58:00,24.5,13.7,30.54,West,281,0.0,0.0,63,0.00,,SKC,0.00,0.00,VWS V14.01,2013-01-20 00:58:00,
2013-01-19 18:00:00,24.4,14.0,30.54,West,281,0.0,0.0,64,0.00,,SKC,0.00,0.00,VWS V14.01,2013-01-20 01:00:00,
2013-01-19 18:04:00,24.2,13.4,30.54,West,281,0.0,0.0,63,0.00,,SKC,0.00,0.00,VWS V14.01,2013-01-20 01:04:00,
2013-01-19 18:11:00,23.8,13.1,30.54,West,281,0.0,0.0,63,0.00,,SKC,0.00,0.00,VWS V14.01,2013-01-20 01:11:00,
2013-01-19 18:15:00,23.5,13.1,30.54,West,281,0.0,0.0,64,0.00,,SKC,0.00,0.00,VWS V14.01,2013-01-20 01:15:00,
2013-01-19 18:18:00,23.4,13.4,30.56,West,281,0.0,0.0,65,0.00,,SKC,0.00,0.00,VWS V14.01,2013-01-20 01:18:00,
2013-01-19 18:28:00,22.7,13.1,30.56,West,281,1.0,1.0,66,0.00,,SKC,0.00,0.00,VWS V14.01,2013-01-20 01:28:00,
2013-01-19 18:30:00,22.5,13.2,30.56,SSW,200,0.0,2.0,67,0.00,,SKC,0.00,0.00,VWS V14.01,2013-01-20 01:30:00,
2013-01-19 18:33:00,22.3,13.4,30.56,SSW,201,0.0,0.0,68,0.00,,SKC,0.00,0.00,VWS V14.01,2013-01-20 01:33:00,
2013-01-19 18:40:00,21.9,13.0,30.56,SSW,200,0.0,0.0,68,0.00,,SKC,0.00,0.00,VWS V14.01,2013-01-20 01:40:00,
2013-01-19 18:45:00,21.6,13.0,30.56,SSW,200,0.0,0.0,69,0.00,,SKC,0.00,0.00,VWS V14.01,2013-01-20 01:45:00,
2013-01-19 18:51:00,21.2,13.0,30.58,SSW,200,0.0,0.0,70,0.00,,SKC,0.00,0.00,VWS V14.01,2013-01-20 01:51:00,
2013-01-19 18:57:00,20.9,12.7,30.58,SSW,200,0.0,0.0,70,0.00,,SKC,0.00,0.00,VWS V14.01,2013-01-20 01:57:00,
2013-01-19 19:00:00,20.7,12.8,30.58,SSW,200,0.0,1.0,71,0.00,,SKC,0.00,0.00,VWS V14.01,2013-01-20 02:00:00,
2013-01-19 19:02:00,20.6,12.7,30.58,SSW,200,2.0,2.0,71,0.00,,SKC,0.00,0.00,VWS V14.01,2013-01-20 02:02:00,
2013-01-19 19:09:00,20.3,12.7,30.59,SSW,200,0.0,2.0,72,0.00,,SKC,0.00,0.00,VWS V14.01,2013-01-20 02:09:00,
2013-01-19 19:15:00,20.0,12.4,30.60,SSW,200,0.0,2.0,72,0.00,,SKC,0.00,0.00,VWS V14.01,2013-01-20 02:15:00,
2013-01-19 19:21:00,19.7,12.5,30.60,SSW,201,0.0,2.0,73,0.00,,SKC,0.00,0.00,VWS V14.01,2013-01-20 02:21:00,
2013-01-19 19:29:00,19.6,13.0,30.59,SSW,202,0.0,2.0,75,0.00,,SKC,0.00,0.00,VWS V14.01,2013-01-20 02:29:00,
2013-01-19 19:30:00,19.7,13.1,30.60,SSW,202,0.0,2.0,75,0.00,,SKC,0.00,0.00,VWS V14.01,2013-01-20 02:30:00,
2013-01-19 19:36:00,19.7,13.1,30.59,SSW,202,0.0,1.0,75,0.00,,SKC,0.00,0.00,VWS V14.01,2013-01-20 02:36:00,
2013-01-19 19:42:00,19.5,12.6,30.60,SSW,202,0.0,1.0,74,0.00,,SKC,0.00,0.00,VWS V14.01,2013-01-20 02:42:00,
2013-01-19 19:45:00,19.4,12.5,30.60,SSW,202,1.0,1.0,74,0.00,,SKC,0.00,0.00,VWS V14.01,2013-01-20 02:45:00,
2013-01-19 19:48:00,19.3,12.4,30.60,SSW,202,0.0,1.0,74,0.00,,SKC,0.00,0.00,VWS V14.01,2013-01-20 02:48:00,
2013-01-19 19:55:00,19.1,12.5,30.60,SSW,202,0.0,1.0,75,0.00,,SKC,0.00,0.00,VWS V14.01,2013-01-20 02:55:00,
2013-01-19 20:00:00,19.0,12.4,30.60,SSW,202,0.0,1.0,75,0.00,,SKC,0.00,0.00,VWS V14.01,2013-01-20 03:00:00,
2013-01-19 20:07:00,18.9,12.3,30.61,SSW,202,0.0,1.0,75,0.00,,SKC,0.00,0.00,VWS V14.01,2013-01-20 03:07:00,
2013-01-19 20:14:00,18.8,12.5,30.61,SSW,202,0.0,1.0,76,0.00,,SKC,0.00,0.00,VWS V14.01,2013-01-20 03:14:00,
2013-01-19 20:15:00,18.8,12.5,30.61,SSW,202,1.0,1.0,76,0.00,,SKC,0.00,0.00,VWS V14.01,2013-01-20 03:15:00,
2013-01-19 20:20:00,18.8,12.5,30.61,SSW,202,0.0,1.0,76,0.00,,SKC,0.00,0.00,VWS V14.01,2013-01-20 03:20:00,
2013-01-19 20:27:00,19.0,13.0,30.61,SSW,203,2.0,3.0,77,0.00,,SKC,0.00,0.00,VWS V14.01,2013-01-20 03:27:00,
2013-01-19 20:30:00,19.1,12.8,30.61,SSW,203,0.0,3.0,76,0.00,,SKC,0.00,0.00,VWS V14.01,2013-01-20 03:30:00,
2013-01-19 20:35:00,19.1,12.5,30.61,SSW,203,0.0,1.0,75,0.00,,SKC,0.00,0.00,VWS V14.01,2013-01-20 03:35:00,
2013-01-19 20:43:00,18.9,12.0,30.61,SSW,203,0.0,1.0,74,0.00,,SKC,0.00,0.00,VWS V14.01,2013-01-20 03:43:00,
2013-01-19 20:45:00,18.9,12.0,30.61,SSW,203,0.0,1.0,74,0.00,,SKC,0.00,0.00,VWS V14.01,2013-01-20 03:45:00,
2013-01-19 20:49:00,18.7,11.8,30.61,SSW,203,0.0,1.0,74,0.00,,SKC,0.00,0.00,VWS V14.01,2013-01-20 03:49:00,
2013-01-19 20:54:00,18.5,11.9,30.61,SSW,202,0.0,1.0,75,0.00,,SKC,0.00,0.00,VWS V14.01,2013-01-20 03:54:00,
2013-01-19 21:00:00,18.4,11.8,30.61,SSW,202,0.0,1.0,75,0.00,,SKC,0.00,0.00,VWS V14.01,2013-01-20 04:00:00,
2013-01-19 21:07:00,18.1,11.8,30.50,SSW,203,0.0,0.0,76,0.00,,SKC,0.00,0.00,VWS V14.01,2013-01-20 04:07:00,
2013-01-19 21:13:00,17.9,11.6,30.50,SSW,203,0.0,0.0,76,0.00,,SKC,0.00,0.00,VWS V14.01,2013-01-20 04:13:00,
2013-01-19 21:15:00,17.9,11.6,30.50,SSW,203,0.0,0.0,76,0.00,,SKC,0.00,0.00,VWS V14.01,2013-01-20 04:15:00,
2013-01-19 21:19:00,17.7,11.4,30.50,SSW,202,0.0,0.0,76,0.00,,SKC,0.00,0.00,VWS V14.01,2013-01-20 04:19:00,
2013-01-19 21:26:00,17.5,11.2,30.50,SSW,203,0.0,0.0,76,0.00,,SKC,0.00,0.00,VWS V14.01,2013-01-20 04:26:00,
2013-01-19 21:30:00,17.3,11.1,30.52,SSW,203,0.0,0.0,76,0.00,,SKC,0.00,0.00,VWS V14.01,2013-01-20 04:30:00,
2013-01-19 21:32:00,17.3,11.1,30.51,SSW,203,0.0,0.0,76,0.00,,SKC,0.00,0.00,VWS V14.01,2013-01-20 04:32:00,
2013-01-19 21:38:00,17.1,11.1,30.51,SSW,203,1.0,1.0,77,0.00,,SKC,0.00,0.00,VWS V14.01,2013-01-20 04:38:00,
2013-01-19 21:44:00,17.1,10.9,30.51,SSW,203,0.0,1.0,76,0.00,,SKC,0.00,0.00,VWS V14.01,2013-01-20 04:44:00,
2013-01-19 21:45:00,17.1,10.9,30.51,SSW,203,0.0,1.0,76,0.00,,SKC,0.00,0.00,VWS V14.01,2013-01-20 04:45:00,
2013-01-19 21:50:00,17.0,10.8,30.51,SSW,203,0.0,0.0,76,0.00,,SKC,0.00,0.00,VWS V14.01,2013-01-20 04:50:00,
2013-01-19 21:56:00,16.8,10.6,30.51,SSW,203,0.0,0.0,76,0.00,,SKC,0.00,0.00,VWS V14.01,2013-01-20 04:56:00,
2013-01-19 22:00:00,16.6,10.4,30.51,SSW,203,0.0,2.0,76,0.00,,SKC,0.00,0.00,VWS V14.01,2013-01-20 05:00:00,
2013-01-19 22:01:00,16.6,10.4,30.51,SSW,203,0.0,2.0,76,0.00,,SKC,0.00,0.00,VWS V14.01,2013-01-20 05:01:00,
2013-01-19 22:03:00,16.4,10.2,30.45,SSW,202,0.0,0.0,76,0.00,,SKC,0.00,0.00,VWS V14.01,2013-01-20 05:03:00,
2013-01-19 22:04:00,16.4,10.2,30.45,SSW,203,0.0,0.0,76,0.00,,SKC,0.00,0.00,VWS V14.01,2013-01-20 05:04:00,
2013-01-19 22:11:00,16.2,10.3,30.44,SSW,203,0.0,0.0,77,0.00,,SKC,0.00,0.00,VWS V14.01,2013-01-20 05:11:00,
2013-01-19 22:15:00,16.1,10.2,30.44,SSW,203,0.0,0.0,77,0.00,,SKC,0.00,0.00,VWS V14.01,2013-01-20 05:15:00,
2013-01-19 22:16:00,16.1,10.2,30.44,SSW,203,0.0,0.0,77,0.00,,SKC,0.00,0.00,VWS V14.01,2013-01-20 05:16:00,
2013-01-19 22:23:00,15.7,9.5,30.44,SSW,203,0.0,0.0,76,0.00,,SKC,0.00,0.00,VWS V14.01,2013-01-20 05:23:00,
2013-01-19 22:28:00,15.2,9.0,30.46,SSW,202,0.0,1.0,76,0.00,,SKC,0.00,0.00,VWS V14.01,2013-01-20 05:28:00,
2013-01-19 22:30:00,15.1,8.9,30.46,SSW,203,0.0,1.0,76,0.00,,SKC,0.00,0.00,VWS V14.01,2013-01-20 05:30:00,
2013-01-19 22:35:00,14.9,9.0,30.47,SSW,202,0.0,0.0,77,0.00,,SKC,0.00,0.00,VWS V14.01,2013-01-20 05:35:00,
2013-01-19 22:41:00,14.7,8.8,30.47,SSW,203,0.0,0.0,77,0.00,,SKC,0.00,0.00,VWS V14.01,2013-01-20 05:41:00,
2013-01-19 22:45:00,14.5,8.9,30.47,SSW,202,0.0,0.0,78,0.00,,SKC,0.00,0.00,VWS V14.01,2013-01-20 05:45:00,
2013-01-19 22:47:00,14.5,8.9,30.47,SSW,203,0.0,0.0,78,0.00,,SKC,0.00,0.00,VWS V14.01,2013-01-20 05:47:00,
2013-01-19 22:54:00,14.1,8.5,30.47,SSW,202,0.0,0.0,78,0.00,,SKC,0.00,0.00,VWS V14.01,2013-01-20 05:54:00,
2013-01-19 23:00:00,13.8,8.2,30.47,SSW,203,0.0,1.0,78,0.00,,SKC,0.00,0.00,VWS V14.01,2013-01-20 06:00:00,
2013-01-19 23:06:00,13.6,8.3,30.44,SSW,203,0.0,1.0,79,0.00,,SKC,0.00,0.00,VWS V14.01,2013-01-20 06:06:00,
2013-01-19 23:12:00,13.3,7.7,30.44,SSW,203,0.0,2.0,78,0.00,,SKC,0.00,0.00,VWS V14.01,2013-01-20 06:12:00,
2013-01-19 23:15:00,13.0,7.7,30.43,SSW,202,0.0,2.0,79,0.00,,SKC,0.00,0.00,VWS V14.01,2013-01-20 06:15:00,
2013-01-19 23:17:00,13.0,7.7,30.43,SSW,203,1.0,1.0,79,0.00,,SKC,0.00,0.00,VWS V14.01,2013-01-20 06:17:00,
2013-01-19 23:23:00,12.7,7.4,30.44,SSW,203,1.0,1.0,79,0.00,,SKC,0.00,0.00,VWS V14.01,2013-01-20 06:23:00,
2013-01-19 23:28:00,12.6,7.6,30.44,SSW,203,0.0,1.0,80,0.00,,SKC,0.00,0.00,VWS V14.01,2013-01-20 06:28:00,
2013-01-19 23:30:00,12.5,7.5,30.44,SSW,202,0.0,1.0,80,0.00,,SKC,0.00,0.00,VWS V14.01,2013-01-20 06:30:00,
2013-01-19 23:33:00,12.4,7.4,30.44,SSW,203,0.0,0.0,80,0.00,,SKC,0.00,0.00,VWS V14.01,2013-01-20 06:33:00,
2013-01-19 23:39:00,12.3,7.6,30.45,SSW,203,0.0,1.0,81,0.00,,SKC,0.00,0.00,VWS V14.01,2013-01-20 06:39:00,
2013-01-19 23:45:00,12.3,7.9,30.45,SSW,203,2.0,2.0,82,0.00,,SKC,0.00,0.00,VWS V14.01,2013-01-20 06:45:00,
2013-01-19 23:46:00,12.3,7.9,30.45,SSW,203,2.0,2.0,82,0.00,,SKC,0.00,0.00,VWS V14.01,2013-01-20 06:46:00,
2013-01-19 23:52:00,12.7,8.5,30.43,SSW,203,0.0,2.0,83,0.00,,SKC,0.00,0.00,VWS V14.01,2013-01-20 06:52:00,
2013-01-19 23:58:00,12.7,8.3,30.43,SSW,202,0.0,2.0,82,0.00,,SKC,0.00,0.00,VWS V14.01,2013-01-20 06:58:00,